createdAt,value
2022-08-30T00:00:11.579Z,144
2022-08-30T00:01:13.647Z,144
2022-08-30T00:02:11.611Z,144
2022-08-30T00:03:11.751Z,144
2022-08-30T00:04:11.599Z,144
2022-08-30T00:05:11.581Z,144
2022-08-30T00:06:11.592Z,144
2022-08-30T00:07:11.601Z,144
2022-08-30T00:08:11.593Z,144
2022-08-30T00:09:11.592Z,144
2022-08-30T00:10:11.598Z,144
2022-08-30T00:11:11.593Z,144
2022-08-30T00:12:11.594Z,144
2022-08-30T00:13:11.588Z,144
2022-08-30T00:14:11.600Z,144
2022-08-30T00:15:11.770Z,144
2022-08-30T00:16:11.607Z,144
2022-08-30T00:17:11.600Z,144
2022-08-30T00:18:11.602Z,144
2022-08-30T00:19:11.601Z,144
2022-08-30T00:20:11.601Z,144
2022-08-30T00:21:11.610Z,144
2022-08-30T00:22:11.603Z,144
2022-08-30T00:23:11.601Z,144
2022-08-30T00:24:11.613Z,144
2022-08-30T00:25:11.609Z,144
2022-08-30T00:26:11.612Z,144
2022-08-30T00:27:11.608Z,144
2022-08-30T00:28:11.611Z,144
2022-08-30T00:29:11.608Z,144
2022-08-30T00:30:11.607Z,144
2022-08-30T00:31:11.669Z,144
2022-08-30T00:32:11.620Z,144
2022-08-30T00:33:11.612Z,144
2022-08-30T00:34:11.617Z,144
2022-08-30T00:35:11.621Z,144
2022-08-30T00:36:11.626Z,144
2022-08-30T00:37:11.626Z,144
2022-08-30T00:38:11.620Z,144
2022-08-30T00:39:11.620Z,144
2022-08-30T00:40:11.675Z,144
2022-08-30T00:41:11.630Z,144
2022-08-30T00:42:11.629Z,144
2022-08-30T00:43:14.024Z,144
2022-08-30T00:44:11.623Z,144
2022-08-30T00:45:11.637Z,144
2022-08-30T00:46:11.707Z,144
2022-08-30T00:47:11.637Z,144
2022-08-30T00:48:11.639Z,144
2022-08-30T00:49:11.637Z,144
2022-08-30T00:50:11.633Z,144
2022-08-30T00:51:11.648Z,144
2022-08-30T00:52:11.642Z,144
2022-08-30T00:53:11.639Z,144
2022-08-30T00:54:11.647Z,144
2022-08-30T00:55:11.642Z,144
2022-08-30T00:56:11.645Z,144
2022-08-30T00:57:11.653Z,144
2022-08-30T00:58:11.650Z,144
2022-08-30T00:59:11.644Z,144
2022-08-30T01:00:11.658Z,144
2022-08-30T01:01:11.699Z,144
2022-08-30T01:02:11.698Z,144
2022-08-30T01:03:11.666Z,144
2022-08-30T01:04:11.657Z,144
2022-08-30T01:05:11.659Z,144
2022-08-30T01:06:11.646Z,144
2022-08-30T01:07:11.656Z,144
2022-08-30T01:08:11.663Z,144
2022-08-30T01:09:11.657Z,144
2022-08-30T01:10:11.671Z,144
2022-08-30T01:11:11.665Z,144
2022-08-30T01:12:11.664Z,144
2022-08-30T01:13:11.663Z,144
2022-08-30T01:14:11.668Z,144
2022-08-30T01:15:11.670Z,144
2022-08-30T01:16:11.738Z,144
2022-08-30T01:17:11.675Z,144
2022-08-30T01:18:13.216Z,144
2022-08-30T01:19:11.675Z,144
2022-08-30T01:20:11.679Z,144
2022-08-30T01:21:11.678Z,144
2022-08-30T01:22:11.683Z,144
2022-08-30T01:23:11.680Z,144
2022-08-30T01:24:11.683Z,144
2022-08-30T01:25:11.681Z,144
2022-08-30T01:26:11.679Z,144
2022-08-30T01:27:11.682Z,144
2022-08-30T01:28:11.693Z,144
2022-08-30T01:29:11.698Z,144
2022-08-30T01:30:11.691Z,144
2022-08-30T01:31:11.764Z,144
2022-08-30T01:32:11.692Z,144
2022-08-30T01:33:11.744Z,144
2022-08-30T01:34:11.692Z,144
2022-08-30T01:35:11.704Z,144
2022-08-30T01:36:11.697Z,144
2022-08-30T01:37:11.694Z,144
2022-08-30T01:38:11.700Z,144
2022-08-30T01:39:11.697Z,144
2022-08-30T01:40:11.736Z,144
2022-08-30T01:41:11.688Z,144
2022-08-30T01:42:11.698Z,144
2022-08-30T01:43:11.701Z,144
2022-08-30T01:44:11.697Z,144
2022-08-30T01:45:11.697Z,144
2022-08-30T01:46:11.758Z,144
2022-08-30T01:47:11.710Z,144
2022-08-30T01:48:11.725Z,144
2022-08-30T01:49:11.707Z,144
2022-08-30T01:50:11.706Z,144
2022-08-30T01:51:11.703Z,144
2022-08-30T01:52:11.707Z,144
2022-08-30T01:53:12.330Z,144
2022-08-30T01:54:11.717Z,144
2022-08-30T01:55:11.711Z,144
2022-08-30T01:56:11.719Z,144
2022-08-30T01:57:11.719Z,144
2022-08-30T01:58:11.712Z,144
2022-08-30T01:59:11.720Z,144
2022-08-30T02:00:11.719Z,144
2022-08-30T02:01:11.763Z,144
2022-08-30T02:02:11.729Z,144
2022-08-30T02:03:11.720Z,144
2022-08-30T02:04:11.803Z,144
2022-08-30T02:05:11.724Z,144
2022-08-30T02:06:11.722Z,144
2022-08-30T02:07:11.725Z,144
2022-08-30T02:08:11.723Z,144
2022-08-30T02:09:11.732Z,144
2022-08-30T02:10:11.727Z,144
2022-08-30T02:11:11.722Z,144
2022-08-30T02:12:11.728Z,144
2022-08-30T02:13:11.732Z,144
2022-08-30T02:14:11.726Z,144
2022-08-30T02:15:11.734Z,144
2022-08-30T02:16:11.772Z,144
2022-08-30T02:17:11.732Z,144
2022-08-30T02:18:11.732Z,144
2022-08-30T02:19:12.827Z,144
2022-08-30T02:20:11.733Z,144
2022-08-30T02:21:11.742Z,144
2022-08-30T02:22:11.737Z,144
2022-08-30T02:23:11.784Z,144
2022-08-30T02:24:11.739Z,144
2022-08-30T02:25:18.652Z,144
2022-08-30T02:26:11.741Z,144
2022-08-30T02:27:11.739Z,144
2022-08-30T02:28:11.741Z,144
2022-08-30T02:29:11.743Z,144
2022-08-30T02:30:11.748Z,144
2022-08-30T02:31:11.792Z,144
2022-08-30T02:32:11.748Z,144
2022-08-30T02:33:11.747Z,144
2022-08-30T02:34:11.760Z,144
2022-08-30T02:35:11.758Z,144
2022-08-30T02:36:11.751Z,144
2022-08-30T02:37:11.755Z,144
2022-08-30T02:38:11.745Z,144
2022-08-30T02:39:11.757Z,144
2022-08-30T02:40:11.798Z,144
2022-08-30T02:41:11.752Z,144
2022-08-30T02:42:11.750Z,144
2022-08-30T02:43:11.756Z,144
2022-08-30T02:44:11.754Z,144
2022-08-30T02:45:11.755Z,144
2022-08-30T02:46:11.779Z,144
2022-08-30T02:47:11.751Z,144
2022-08-30T02:48:11.751Z,144
2022-08-30T02:49:34.771Z,144
2022-08-30T02:50:11.763Z,144
2022-08-30T02:51:11.860Z,144
2022-08-30T02:52:11.763Z,144
2022-08-30T02:53:14.106Z,144
2022-08-30T02:54:11.753Z,144
2022-08-30T02:55:11.759Z,144
2022-08-30T02:56:11.755Z,144
2022-08-30T02:57:19.880Z,144
2022-08-30T02:58:11.758Z,144
2022-08-30T02:59:11.750Z,144
2022-08-30T03:00:11.758Z,144
2022-08-30T03:01:11.822Z,144
2022-08-30T03:02:11.755Z,144
2022-08-30T03:03:11.768Z,144
2022-08-30T03:04:11.759Z,144
2022-08-30T03:05:11.758Z,144
2022-08-30T03:06:11.757Z,144
2022-08-30T03:07:11.755Z,144
2022-08-30T03:08:11.751Z,144
2022-08-30T03:09:11.757Z,144
2022-08-30T03:10:11.763Z,144
2022-08-30T03:11:11.763Z,144
2022-08-30T03:12:11.762Z,144
2022-08-30T03:13:11.771Z,144
2022-08-30T03:14:11.765Z,144
2022-08-30T03:15:11.764Z,144
2022-08-30T03:16:11.802Z,144
2022-08-30T03:17:12.764Z,144
2022-08-30T03:18:11.766Z,144
2022-08-30T03:19:11.791Z,144
2022-08-30T03:20:11.782Z,144
2022-08-30T03:21:11.782Z,144
2022-08-30T03:22:11.769Z,144
2022-08-30T03:23:11.770Z,144
2022-08-30T03:24:11.778Z,144
2022-08-30T03:25:11.770Z,144
2022-08-30T03:26:11.783Z,144
2022-08-30T03:27:11.778Z,144
2022-08-30T03:28:11.777Z,144
2022-08-30T03:29:11.779Z,144
2022-08-30T03:30:11.785Z,144
2022-08-30T03:31:11.787Z,144
2022-08-30T03:32:11.899Z,144
2022-08-30T03:33:11.796Z,144
2022-08-30T03:34:11.798Z,144
2022-08-30T03:35:11.793Z,144
2022-08-30T03:36:11.797Z,144
2022-08-30T03:37:11.799Z,144
2022-08-30T03:38:11.795Z,144
2022-08-30T03:39:12.508Z,144
2022-08-30T03:40:11.842Z,144
2022-08-30T03:41:11.808Z,144
2022-08-30T03:42:11.809Z,144
2022-08-30T03:43:11.803Z,144
2022-08-30T03:44:11.802Z,144
2022-08-30T03:45:11.814Z,144
2022-08-30T03:46:11.870Z,144
2022-08-30T03:47:11.805Z,144
2022-08-30T03:48:11.807Z,144
2022-08-30T03:49:11.809Z,144
2022-08-30T03:50:11.811Z,144
2022-08-30T03:51:11.806Z,144
2022-08-30T03:52:11.817Z,144
2022-08-30T03:53:11.821Z,144
2022-08-30T03:54:11.814Z,144
2022-08-30T03:55:11.818Z,144
2022-08-30T03:56:11.819Z,144
2022-08-30T03:57:19.825Z,144
2022-08-30T03:58:11.819Z,144
2022-08-30T03:59:11.822Z,144
2022-08-30T04:00:11.825Z,144
2022-08-30T04:01:11.855Z,144
2022-08-30T04:02:11.866Z,73.41
2022-08-30T04:03:11.831Z,77.65
2022-08-30T04:04:11.833Z,57.88
2022-08-30T04:05:11.825Z,184.94
2022-08-30T04:06:11.831Z,175.06
2022-08-30T04:07:11.830Z,175.06
2022-08-30T04:08:11.829Z,197.65
2022-08-30T04:09:11.838Z,190.59
2022-08-30T04:10:11.821Z,172.24
2022-08-30T04:11:11.827Z,179.29
2022-08-30T04:12:11.826Z,196.24
2022-08-30T04:13:11.829Z,186.35
2022-08-30T04:14:11.847Z,124.24
2022-08-30T04:15:11.836Z,124.24
2022-08-30T04:16:11.897Z,124.24
2022-08-30T04:17:11.839Z,124.24
2022-08-30T04:18:11.850Z,124.24
2022-08-30T04:19:11.833Z,124.24
2022-08-30T04:20:11.840Z,124.24
2022-08-30T04:21:14.088Z,124.24
2022-08-30T04:22:11.840Z,124.24
2022-08-30T04:23:11.843Z,124.24
2022-08-30T04:24:11.850Z,124.24
2022-08-30T04:25:13.004Z,124.24
2022-08-30T04:26:11.845Z,124.24
2022-08-30T04:27:11.854Z,124.24
2022-08-30T04:28:11.840Z,124.24
2022-08-30T04:29:11.852Z,124.24
2022-08-30T04:30:11.850Z,124.24
2022-08-30T04:31:12.101Z,124.24
2022-08-30T04:32:11.850Z,124.24
2022-08-30T04:33:11.850Z,124.24
2022-08-30T04:34:11.845Z,124.24
2022-08-30T04:35:11.858Z,124.24
2022-08-30T04:36:11.855Z,124.24
2022-08-30T04:37:11.849Z,124.24
2022-08-30T04:38:11.861Z,124.24
2022-08-30T04:39:11.866Z,124.24
2022-08-30T04:40:11.903Z,124.24
2022-08-30T04:41:11.865Z,124.24
2022-08-30T04:42:11.864Z,124.24
2022-08-30T04:43:11.866Z,124.24
2022-08-30T04:44:14.095Z,124.24
2022-08-30T04:45:11.874Z,124.24
2022-08-30T04:46:11.917Z,124.24
2022-08-30T04:47:11.875Z,124.24
2022-08-30T04:48:11.882Z,124.24
2022-08-30T04:49:11.875Z,124.24
2022-08-30T04:50:11.872Z,124.24
2022-08-30T04:51:11.871Z,124.24
2022-08-30T04:52:11.893Z,124.24
2022-08-30T04:53:11.883Z,124.24
2022-08-30T04:54:11.881Z,124.24
2022-08-30T04:55:11.887Z,124.24
2022-08-30T04:56:11.881Z,124.24
2022-08-30T04:57:11.883Z,124.24
2022-08-30T04:58:11.882Z,124.24
2022-08-30T04:59:11.886Z,124.24
2022-08-30T05:00:11.886Z,124.24
2022-08-30T05:01:11.916Z,124.24
2022-08-30T05:02:14.350Z,124.24
2022-08-30T05:03:11.890Z,124.24
2022-08-30T05:04:11.891Z,124.24
2022-08-30T05:05:11.892Z,124.24
2022-08-30T05:06:11.887Z,124.24
2022-08-30T05:07:11.894Z,124.24
2022-08-30T05:08:11.904Z,124.24
2022-08-30T05:09:11.900Z,124.24
2022-08-30T05:10:11.902Z,124.24
2022-08-30T05:11:11.903Z,175.06
2022-08-30T05:12:11.902Z,187.76
2022-08-30T05:13:11.892Z,159.53
2022-08-30T05:14:11.911Z,166.59
2022-08-30T05:15:11.900Z,201.88
2022-08-30T05:16:12.028Z,193.41
2022-08-30T05:17:11.899Z,201.88
2022-08-30T05:18:13.390Z,216
2022-08-30T05:19:11.903Z,216
2022-08-30T05:20:11.909Z,214.59
2022-08-30T05:21:11.909Z,186.35
2022-08-30T05:22:11.907Z,200.47
2022-08-30T05:23:11.902Z,173.65
2022-08-30T05:24:11.906Z,203.29
2022-08-30T05:25:14.489Z,208.94
2022-08-30T05:26:11.903Z,199.06
2022-08-30T05:27:11.910Z,192
2022-08-30T05:28:11.909Z,186.35
2022-08-30T05:29:11.911Z,186.35
2022-08-30T05:30:11.917Z,186.35
2022-08-30T05:31:13.888Z,186.35
2022-08-30T05:32:11.914Z,186.35
2022-08-30T05:33:11.922Z,186.35
2022-08-30T05:34:11.923Z,186.35
2022-08-30T05:35:11.922Z,186.35
2022-08-30T05:36:11.924Z,186.35
2022-08-30T05:37:11.929Z,186.35
2022-08-30T05:38:11.936Z,186.35
2022-08-30T05:39:11.928Z,186.35
2022-08-30T05:40:11.952Z,186.35
2022-08-30T05:41:11.931Z,186.35
2022-08-30T05:42:11.929Z,186.35
2022-08-30T05:43:11.936Z,186.35
2022-08-30T05:44:11.930Z,186.35
2022-08-30T05:45:11.934Z,186.35
2022-08-30T05:46:11.979Z,186.35
2022-08-30T05:47:11.942Z,186.35
2022-08-30T05:48:12.931Z,186.35
2022-08-30T05:49:11.937Z,186.35
2022-08-30T05:50:11.926Z,186.35
2022-08-30T05:51:11.945Z,186.35
2022-08-30T05:52:11.931Z,186.35
2022-08-30T05:53:11.938Z,186.35
2022-08-30T05:54:11.933Z,186.35
2022-08-30T05:55:11.946Z,186.35
2022-08-30T05:56:11.931Z,186.35
2022-08-30T05:57:11.935Z,186.35
2022-08-30T05:58:11.939Z,186.35
2022-08-30T05:59:11.936Z,186.35
2022-08-30T06:00:11.943Z,186.35
2022-08-30T06:01:11.949Z,186.35
2022-08-30T06:02:11.997Z,186.35
2022-08-30T06:03:11.997Z,186.35
2022-08-30T06:04:11.942Z,186.35
2022-08-30T06:05:14.207Z,186.35
2022-08-30T06:06:11.953Z,186.35
2022-08-30T06:07:13.234Z,186.35
2022-08-30T06:08:11.957Z,186.35
2022-08-30T06:09:11.956Z,186.35
2022-08-30T06:10:11.956Z,186.35
2022-08-30T06:11:11.959Z,186.35
2022-08-30T06:12:11.949Z,186.35
2022-08-30T06:13:11.948Z,186.35
2022-08-30T06:14:11.951Z,186.35
2022-08-30T06:15:11.956Z,186.35
2022-08-30T06:16:12.032Z,186.35
2022-08-30T06:17:11.963Z,186.35
2022-08-30T06:18:12.018Z,186.35
2022-08-30T06:19:11.971Z,186.35
2022-08-30T06:20:11.962Z,186.35
2022-08-30T06:21:15.063Z,186.35
2022-08-30T06:22:11.962Z,186.35
2022-08-30T06:23:11.963Z,186.35
2022-08-30T06:24:11.964Z,186.35
2022-08-30T06:25:11.976Z,186.35
2022-08-30T06:26:11.972Z,186.35
2022-08-30T06:27:11.969Z,186.35
2022-08-30T06:28:12.034Z,186.35
2022-08-30T06:29:11.974Z,186.35
2022-08-30T06:30:11.973Z,186.35
2022-08-30T06:31:12.074Z,186.35
2022-08-30T06:32:11.975Z,186.35
2022-08-30T06:33:11.976Z,186.35
2022-08-30T06:34:11.969Z,186.35
2022-08-30T06:35:11.982Z,186.35
2022-08-30T06:36:11.973Z,186.35
2022-08-30T06:37:11.973Z,186.35
2022-08-30T06:38:11.983Z,186.35
2022-08-30T06:39:11.976Z,186.35
2022-08-30T06:40:12.019Z,186.35
2022-08-30T06:41:11.985Z,186.35
2022-08-30T06:42:11.977Z,186.35
2022-08-30T06:43:11.978Z,186.35
2022-08-30T06:44:11.984Z,186.35
2022-08-30T06:45:11.987Z,186.35
2022-08-30T06:46:12.011Z,186.35
2022-08-30T06:47:11.977Z,186.35
2022-08-30T06:48:12.109Z,186.35
2022-08-30T06:49:11.987Z,186.35
2022-08-30T06:50:12.221Z,186.35
2022-08-30T06:51:11.987Z,186.35
2022-08-30T06:52:11.981Z,186.35
2022-08-30T06:53:11.985Z,186.35
2022-08-30T06:54:12.276Z,186.35
2022-08-30T06:55:12.001Z,186.35
2022-08-30T06:56:16.332Z,186.35
2022-08-30T06:57:11.988Z,186.35
2022-08-30T06:58:12.004Z,186.35
2022-08-30T06:59:11.995Z,228.71
2022-08-30T07:00:12.001Z,210.35
2022-08-30T07:01:12.006Z,210.35
2022-08-30T07:02:12.078Z,210.35
2022-08-30T07:03:12.057Z,211.76
2022-08-30T07:04:11.995Z,177.88
2022-08-30T07:05:14.222Z,177.88
2022-08-30T07:06:12.000Z,177.88
2022-08-30T07:07:11.997Z,177.88
2022-08-30T07:08:12.003Z,177.88
2022-08-30T07:09:11.996Z,177.88
2022-08-30T07:10:12.005Z,177.88
2022-08-30T07:11:11.997Z,177.88
2022-08-30T07:12:12.012Z,177.88
2022-08-30T07:13:11.998Z,177.88
2022-08-30T07:14:12.010Z,177.88
2022-08-30T07:15:12.009Z,177.88
2022-08-30T07:16:12.055Z,177.88
2022-08-30T07:17:12.008Z,177.88
2022-08-30T07:18:12.005Z,177.88
2022-08-30T07:19:20.357Z,177.88
2022-08-30T07:20:12.006Z,177.88
2022-08-30T07:21:12.017Z,177.88
2022-08-30T07:22:12.003Z,177.88
2022-08-30T07:23:12.009Z,177.88
2022-08-30T07:24:12.007Z,177.88
2022-08-30T07:25:12.009Z,286.59
2022-08-30T07:26:12.007Z,286.59
2022-08-30T07:27:12.006Z,279.53
2022-08-30T07:28:12.031Z,309.18
2022-08-30T07:29:12.010Z,307.76
2022-08-30T07:30:12.007Z,309.18
2022-08-30T07:31:12.010Z,316.24
2022-08-30T07:32:12.022Z,319.06
2022-08-30T07:33:12.001Z,288
2022-08-30T07:34:12.010Z,304.94
2022-08-30T07:35:12.003Z,285.18
2022-08-30T07:36:12.016Z,303.53
2022-08-30T07:37:16.767Z,317.65
2022-08-30T07:38:12.012Z,316.24
2022-08-30T07:39:12.010Z,312
2022-08-30T07:40:12.072Z,316.24
2022-08-30T07:41:12.005Z,300.71
2022-08-30T07:42:12.010Z,292.24
2022-08-30T07:43:12.014Z,285.18
2022-08-30T07:44:12.006Z,350.12
2022-08-30T07:45:12.005Z,76.24
2022-08-30T07:46:12.073Z,15.53
2022-08-30T07:47:12.011Z,15.53
2022-08-30T07:48:12.008Z,48
2022-08-30T07:49:12.014Z,46.59
2022-08-30T07:50:12.002Z,289.41
2022-08-30T07:51:12.015Z,304.94
2022-08-30T07:52:12.016Z,275.29
2022-08-30T07:53:12.066Z,321.88
2022-08-30T07:54:12.004Z,319.06
2022-08-30T07:55:12.013Z,261.18
2022-08-30T07:56:12.012Z,208.94
2022-08-30T07:57:12.015Z,328.94
2022-08-30T07:58:12.015Z,307.76
2022-08-30T07:59:12.022Z,262.59
2022-08-30T08:00:12.025Z,283.76
2022-08-30T08:01:12.118Z,295.06
2022-08-30T08:02:12.040Z,310.59
2022-08-30T08:03:12.024Z,343.06
2022-08-30T08:04:12.334Z,285.18
2022-08-30T08:05:16.507Z,256.94
2022-08-30T08:06:12.030Z,275.29
2022-08-30T08:07:12.024Z,283.76
2022-08-30T08:08:12.032Z,320.47
2022-08-30T08:09:12.029Z,15.53
2022-08-30T08:10:12.026Z,52.24
2022-08-30T08:11:12.037Z,21.18
2022-08-30T08:12:12.024Z,21.18
2022-08-30T08:13:12.031Z,21.18
2022-08-30T08:14:12.059Z,53.65
2022-08-30T08:15:12.036Z,67.76
2022-08-30T08:16:12.099Z,57.88
2022-08-30T08:17:12.044Z,87.53
2022-08-30T08:18:12.042Z,45.18
2022-08-30T08:19:12.038Z,74.82
2022-08-30T08:20:12.039Z,74.82
2022-08-30T08:21:12.045Z,74.82
2022-08-30T08:22:22.857Z,74.82
2022-08-30T08:23:12.042Z,74.82
2022-08-30T08:24:12.039Z,26.82
2022-08-30T08:25:12.049Z,26.82
2022-08-30T08:26:12.070Z,32.47
2022-08-30T08:27:12.043Z,67.76
2022-08-30T08:28:12.050Z,63.53
2022-08-30T08:29:12.050Z,42.35
2022-08-30T08:30:12.052Z,73.41
2022-08-30T08:31:12.087Z,83.29
2022-08-30T08:32:12.052Z,43.76
2022-08-30T08:33:12.054Z,134.12
2022-08-30T08:34:12.052Z,125.65
2022-08-30T08:35:12.053Z,129.88
2022-08-30T08:36:12.061Z,59.29
2022-08-30T08:37:12.053Z,128.47
2022-08-30T08:38:12.063Z,33.88
2022-08-30T08:39:12.059Z,72
2022-08-30T08:40:12.098Z,62.12
2022-08-30T08:41:12.065Z,62.12
2022-08-30T08:42:12.058Z,62.12
2022-08-30T08:43:12.070Z,62.12
2022-08-30T08:44:12.061Z,83.29
2022-08-30T08:45:12.068Z,81.88
2022-08-30T08:46:12.204Z,69.18
2022-08-30T08:47:12.068Z,255.53
2022-08-30T08:48:12.073Z,290.82
2022-08-30T08:49:12.068Z,279.53
2022-08-30T08:50:12.076Z,235.76
2022-08-30T08:51:12.083Z,244.24
2022-08-30T08:52:12.077Z,18.35
2022-08-30T08:53:20.683Z,313.41
2022-08-30T08:54:12.087Z,317.65
2022-08-30T08:55:12.075Z,317.65
2022-08-30T08:56:12.184Z,11.29
2022-08-30T08:57:13.895Z,32.47
2022-08-30T08:58:12.094Z,254.12
2022-08-30T08:59:12.085Z,297.88
2022-08-30T09:00:12.076Z,288
2022-08-30T09:01:12.164Z,289.41
2022-08-30T09:02:12.087Z,333.18
2022-08-30T09:03:12.085Z,259.76
2022-08-30T09:04:12.086Z,314.82
2022-08-30T09:05:12.129Z,269.65
2022-08-30T09:06:12.093Z,269.65
2022-08-30T09:07:12.093Z,269.65
2022-08-30T09:08:12.090Z,269.65
2022-08-30T09:09:12.078Z,269.65
2022-08-30T09:10:12.086Z,269.65
2022-08-30T09:11:12.085Z,269.65
2022-08-30T09:12:12.086Z,269.65
2022-08-30T09:13:13.798Z,269.65
2022-08-30T09:14:12.088Z,269.65
2022-08-30T09:15:12.090Z,269.65
2022-08-30T09:16:13.943Z,12.71
2022-08-30T09:17:12.098Z,12.71
2022-08-30T09:19:12.092Z,244.24
2022-08-30T09:20:12.107Z,216
2022-08-30T09:21:12.094Z,249.88
2022-08-30T09:22:12.102Z,240
2022-08-30T09:23:12.117Z,162.35
2022-08-30T09:24:12.098Z,251.29
2022-08-30T09:25:12.097Z,242.82
2022-08-30T09:26:12.103Z,227.29
2022-08-30T09:27:12.098Z,218.82
2022-08-30T09:28:12.103Z,218.82
2022-08-30T09:29:12.105Z,218.82
2022-08-30T09:30:14.426Z,218.82
2022-08-30T09:31:12.602Z,218.82
2022-08-30T09:32:24.990Z,218.82
2022-08-30T09:33:12.109Z,218.82
2022-08-30T09:34:12.114Z,218.82
2022-08-30T09:35:12.098Z,218.82
2022-08-30T09:36:12.113Z,218.82
2022-08-30T09:37:12.111Z,218.82
2022-08-30T09:38:12.676Z,218.82
2022-08-30T09:39:12.114Z,218.82
2022-08-30T09:40:12.171Z,225.88
2022-08-30T09:41:12.113Z,220.24
2022-08-30T09:42:12.135Z,328.94
2022-08-30T09:43:12.170Z,313.41
2022-08-30T09:44:12.121Z,317.65
2022-08-30T09:45:12.112Z,268.24
2022-08-30T09:46:16.356Z,333.18
2022-08-30T09:47:12.118Z,193.41
2022-08-30T09:48:12.167Z,172.24
2022-08-30T09:49:12.117Z,170.82
2022-08-30T09:50:12.118Z,179.29
2022-08-30T09:51:12.123Z,159.53
2022-08-30T09:52:12.123Z,168
2022-08-30T09:53:12.121Z,165.18
2022-08-30T09:54:17.566Z,165.18
2022-08-30T09:55:12.132Z,165.18
2022-08-30T09:56:12.121Z,184.94
2022-08-30T09:57:12.549Z,225.88
2022-08-30T09:58:12.851Z,242.82
2022-08-30T09:59:12.120Z,125.65
2022-08-30T10:00:13.509Z,189.18
2022-08-30T10:01:12.173Z,135.53
2022-08-30T10:02:12.181Z,131.29
2022-08-30T10:03:12.125Z,162.35
2022-08-30T10:04:12.138Z,240
2022-08-30T10:05:12.137Z,248.47
2022-08-30T10:06:12.133Z,225.88
2022-08-30T10:07:12.136Z,245.65
2022-08-30T10:08:12.553Z,266.82
2022-08-30T10:09:12.128Z,168
2022-08-30T10:10:12.133Z,163.76
2022-08-30T10:11:12.137Z,165.18
2022-08-30T10:12:12.129Z,165.18
2022-08-30T10:13:12.134Z,165.18
2022-08-30T10:14:12.145Z,165.18
2022-08-30T10:15:12.145Z,165.18
2022-08-30T10:16:12.145Z,165.18
2022-08-30T10:17:12.392Z,165.18
2022-08-30T10:18:12.145Z,165.18
2022-08-30T10:19:12.152Z,165.18
2022-08-30T10:20:12.244Z,165.18
2022-08-30T10:21:15.605Z,165.18
2022-08-30T10:22:12.148Z,216
2022-08-30T10:23:12.156Z,186.35
2022-08-30T10:24:12.151Z,186.35
2022-08-30T10:25:12.163Z,186.35
2022-08-30T10:26:12.154Z,238.59
2022-08-30T10:27:12.154Z,199.06
2022-08-30T10:28:12.155Z,206.12
2022-08-30T10:29:12.145Z,221.65
2022-08-30T10:30:12.287Z,244.24
2022-08-30T10:31:12.175Z,230.12
2022-08-30T10:32:12.162Z,230.12
2022-08-30T10:33:12.165Z,230.12
2022-08-30T10:34:12.173Z,230.12
2022-08-30T10:35:13.604Z,210.35
2022-08-30T10:36:12.175Z,196.24
2022-08-30T10:37:12.176Z,196.24
2022-08-30T10:38:12.163Z,234.35
2022-08-30T10:39:12.162Z,216
2022-08-30T10:40:12.267Z,231.53
2022-08-30T10:41:12.165Z,231.53
2022-08-30T10:42:12.165Z,231.53
2022-08-30T10:43:12.193Z,231.53
2022-08-30T10:44:12.171Z,231.53
2022-08-30T10:45:12.173Z,231.53
2022-08-30T10:46:12.176Z,249.88
2022-08-30T10:47:12.178Z,237.18
2022-08-30T10:48:12.333Z,179.29
2022-08-30T10:49:12.175Z,104.47
2022-08-30T10:50:12.176Z,241.41
2022-08-30T10:51:12.172Z,201.88
2022-08-30T10:52:12.175Z,201.88
2022-08-30T10:53:12.175Z,201.88
2022-08-30T10:54:12.177Z,201.88
2022-08-30T10:55:12.176Z,201.88
2022-08-30T10:56:13.074Z,276.71
2022-08-30T10:57:12.185Z,299.29
2022-08-30T10:58:12.193Z,288
2022-08-30T10:59:12.195Z,163.76
2022-08-30T11:00:13.842Z,163.76
2022-08-30T11:01:12.301Z,163.76
2022-08-30T11:02:12.183Z,163.76
2022-08-30T11:03:12.189Z,319.06
2022-08-30T11:04:14.178Z,348.71
2022-08-30T11:05:12.185Z,0
2022-08-30T11:06:12.192Z,0
2022-08-30T11:07:12.191Z,0
2022-08-30T11:08:12.733Z,297.88
2022-08-30T11:09:12.197Z,344.47
2022-08-30T11:10:12.199Z,343.06
2022-08-30T11:11:12.601Z,286.59
2022-08-30T11:12:12.197Z,299.29
2022-08-30T11:13:12.276Z,247.06
2022-08-30T11:14:12.200Z,279.53
2022-08-30T11:15:12.199Z,317.65
2022-08-30T11:16:12.195Z,18.35
2022-08-30T11:17:12.198Z,338.82
2022-08-30T11:18:12.206Z,299.29
2022-08-30T11:19:12.191Z,224.47
2022-08-30T11:20:12.207Z,265.41
2022-08-30T11:21:14.243Z,273.88
2022-08-30T11:22:12.205Z,249.88
2022-08-30T11:23:12.218Z,255.53
2022-08-30T11:24:12.204Z,295.06
2022-08-30T11:25:12.209Z,296.47
2022-08-30T11:26:16.899Z,285.18
2022-08-30T11:27:12.212Z,283.76
2022-08-30T11:28:12.421Z,241.41
2022-08-30T11:29:12.210Z,207.53
2022-08-30T11:30:13.333Z,207.53
2022-08-30T11:31:12.312Z,266.82
2022-08-30T11:32:12.207Z,336
2022-08-30T11:33:12.247Z,313.41
2022-08-30T11:34:12.226Z,314.82
2022-08-30T11:35:12.207Z,323.29
2022-08-30T11:36:12.208Z,286.59
2022-08-30T11:37:12.217Z,295.06
2022-08-30T11:38:12.319Z,306.35
2022-08-30T11:39:12.218Z,299.29
2022-08-30T11:40:13.392Z,304.94
2022-08-30T11:41:12.222Z,269.65
2022-08-30T11:42:12.217Z,336
2022-08-30T11:43:12.234Z,286.59
2022-08-30T11:44:12.222Z,265.41
2022-08-30T11:45:12.223Z,265.41
2022-08-30T11:46:14.478Z,265.41
2022-08-30T11:47:12.218Z,265.41
2022-08-30T11:48:12.233Z,238.59
2022-08-30T11:49:12.230Z,40.94
2022-08-30T11:50:12.546Z,11.29
2022-08-30T11:51:12.223Z,354.35
2022-08-30T11:52:26.873Z,297.88
2022-08-30T11:53:12.298Z,297.88
2022-08-30T11:54:12.238Z,7.06
2022-08-30T11:55:12.225Z,97.41
2022-08-30T11:56:12.224Z,83.29
2022-08-30T11:57:12.227Z,83.29
2022-08-30T11:58:12.344Z,77.65
2022-08-30T11:59:12.219Z,80.47
2022-08-30T12:00:12.228Z,280.94
2022-08-30T12:01:25.887Z,292.24
2022-08-30T12:02:12.384Z,193.41
2022-08-30T12:03:12.335Z,321.88
2022-08-30T12:04:14.675Z,286.59
2022-08-30T12:05:12.221Z,289.41
2022-08-30T12:06:12.231Z,282.35
2022-08-30T12:07:12.227Z,289.41
2022-08-30T12:08:12.235Z,269.65
2022-08-30T12:09:12.230Z,293.65
2022-08-30T12:10:12.228Z,19.76
2022-08-30T12:11:12.230Z,8.47
2022-08-30T12:12:12.227Z,293.65
2022-08-30T12:13:12.239Z,345.88
2022-08-30T12:14:15.464Z,303.53
2022-08-30T12:15:12.232Z,299.29
2022-08-30T12:16:12.298Z,306.35
2022-08-30T12:17:12.228Z,300.71
2022-08-30T12:18:15.505Z,324.71
2022-08-30T12:19:13.531Z,272.47
2022-08-30T12:20:12.239Z,316.24
2022-08-30T12:21:12.237Z,316.24
2022-08-30T12:22:12.234Z,299.29
2022-08-30T12:23:12.232Z,314.82
2022-08-30T12:24:12.231Z,46.59
2022-08-30T12:25:12.229Z,316.24
2022-08-30T12:26:12.233Z,304.94
2022-08-30T12:27:12.232Z,309.18
2022-08-30T12:28:12.273Z,265.41
2022-08-30T12:29:12.233Z,52.24
2022-08-30T12:30:12.233Z,304.94
2022-08-30T12:31:12.237Z,21.18
2022-08-30T12:32:12.270Z,317.65
2022-08-30T12:33:12.237Z,4.24
2022-08-30T12:34:12.244Z,1.41
2022-08-30T12:35:12.240Z,4.24
2022-08-30T12:36:12.245Z,360
2022-08-30T12:37:12.248Z,347.29
2022-08-30T12:38:12.249Z,320.47
2022-08-30T12:39:12.248Z,360
2022-08-30T12:40:12.305Z,21.18
2022-08-30T12:41:12.246Z,26.82
2022-08-30T12:42:12.254Z,7.06
2022-08-30T12:43:12.252Z,18.35
2022-08-30T12:44:12.252Z,11.29
2022-08-30T12:45:12.251Z,14.12
2022-08-30T12:46:12.296Z,358.59
2022-08-30T12:47:12.255Z,26.82
2022-08-30T12:48:12.312Z,300.71
2022-08-30T12:49:12.257Z,348.71
2022-08-30T12:50:12.287Z,307.76
2022-08-30T12:51:12.250Z,330.35
2022-08-30T12:52:12.261Z,309.18
2022-08-30T12:53:14.053Z,297.88
2022-08-30T12:54:12.260Z,360
2022-08-30T12:55:17.807Z,351.53
2022-08-30T12:56:12.265Z,340.24
2022-08-30T12:57:32.238Z,53.65